Time;durP1;ratioP1;P1;durP2;ratioP2;P2;SDS_P1;SDS_P2;PMS_P1;PMS_P2;Temp;Humidity;BMP_temperature;BMP_pressure;BME280_temperature;BME280_humidity;BME280_pressure;Samples;Min_cycle;Max_cycle;Signal;HPM_P1;HPM_P2
2023/08/08 00:01:37;;;;;;;7.63;3.47;;;14.00;65.50;;;;;;6244151;28;20697;-82
2023/08/08 00:04:40;;;;;;;5.00;3.67;;;13.90;65.70;;;;;;6237577;28;20850;-82
2023/08/08 00:07:43;;;;;;;3.97;3.30;;;13.90;66.00;;;;;;6234501;28;20241;-81
2023/08/08 00:10:47;;;;;;;4.83;3.30;;;13.90;66.20;;;;;;6231559;28;20242;-82
2023/08/08 00:13:52;;;;;;;6.60;3.57;;;13.90;66.30;;;;;;6233476;28;20238;-83
2023/08/08 00:16:55;;;;;;;4.90;3.47;;;13.80;66.50;;;;;;6234792;28;20243;-84
2023/08/08 00:19:58;;;;;;;3.90;3.23;;;13.80;66.60;;;;;;6239949;28;20297;-82
2023/08/08 00:23:02;;;;;;;9.47;3.60;;;13.70;66.80;;;;;;6238379;28;20740;-82
2023/08/08 00:26:05;;;;;;;5.90;3.73;;;13.70;67.00;;;;;;6230164;28;20250;-85
2023/08/08 00:29:09;;;;;;;4.17;3.97;;;13.60;67.20;;;;;;6238737;28;20393;-83
2023/08/08 00:32:13;;;;;;;5.83;3.57;;;13.50;67.60;;;;;;6238935;28;20246;-81
2023/08/08 00:35:16;;;;;;;3.70;3.40;;;13.50;67.70;;;;;;6229134;28;20237;-83
2023/08/08 00:38:19;;;;;;;3.53;3.33;;;13.50;67.70;;;;;;6238382;28;20611;-82
2023/08/08 00:41:22;;;;;;;4.43;4.03;;;13.50;67.60;;;;;;6231465;28;20227;-82
2023/08/08 00:44:28;;;;;;;4.93;3.57;;;13.50;67.60;;;;;;6230594;28;20236;-83
2023/08/08 00:47:32;;;;;;;3.43;3.13;;;13.40;67.90;;;;;;6239157;28;20235;-82
2023/08/08 00:50:36;;;;;;;3.67;3.37;;;13.40;67.80;;;;;;6229725;28;20306;-82
2023/08/08 00:53:41;;;;;;;3.20;3.00;;;13.40;67.90;;;;;;6238711;28;20854;-81
2023/08/08 00:56:45;;;;;;;3.77;3.57;;;13.30;68.10;;;;;;6225251;28;20909;-82
2023/08/08 00:59:49;;;;;;;3.43;3.23;;;13.30;67.70;;;;;;6233078;28;20883;-83
2023/08/08 01:02:53;;;;;;;3.40;3.20;;;13.30;67.80;;;;;;6237596;28;20750;-82
2023/08/08 01:06:03;;;;;;;4.03;3.80;;;13.30;67.90;;;;;;6237629;28;20234;-83
2023/08/08 01:09:13;;;;;;;4.40;3.40;;;13.30;67.90;;;;;;6230065;28;20234;-82
2023/08/08 01:12:17;;;;;;;3.90;3.50;;;13.30;67.80;;;;;;6228380;28;20226;-81
2023/08/08 01:15:23;;;;;;;6.13;3.50;;;13.10;68.00;;;;;;6220706;28;20253;-83
2023/08/08 01:18:28;;;;;;;3.47;3.30;;;13.10;68.20;;;;;;6225953;28;20366;-80
2023/08/08 01:21:36;;;;;;;5.47;3.50;;;13.10;68.30;;;;;;6229916;28;20230;-82
2023/08/08 01:24:41;;;;;;;3.53;3.23;;;13.10;68.10;;;;;;6236025;28;20386;-83
2023/08/08 01:27:44;;;;;;;4.27;3.20;;;13.00;68.20;;;;;;6221622;28;20321;-83
2023/08/08 01:30:48;;;;;;;3.37;3.27;;;13.00;68.10;;;;;;6235984;28;20242;-82
2023/08/08 01:33:51;;;;;;;7.37;3.33;;;13.00;68.20;;;;;;6235912;28;20363;-83
2023/08/08 01:36:58;;;;;;;4.00;3.10;;;12.90;68.30;;;;;;6232917;28;20238;-80
2023/08/08 01:40:04;;;;;;;3.20;3.00;;;12.90;68.20;;;;;;6236086;28;20235;-83
2023/08/08 01:43:08;;;;;;;5.57;3.30;;;12.90;68.10;;;;;;6236832;28;20227;-81
2023/08/08 01:46:11;;;;;;;3.30;3.03;;;12.90;68.00;;;;;;6237524;28;20268;-82
2023/08/08 01:49:16;;;;;;;4.37;3.40;;;12.80;68.20;;;;;;6234171;28;20243;-81
2023/08/08 01:52:19;;;;;;;3.80;3.10;;;12.80;68.10;;;;;;6237574;28;20884;-84
2023/08/08 01:55:24;;;;;;;4.17;3.57;;;12.80;67.90;;;;;;6236738;28;20286;-82
2023/08/08 01:58:27;;;;;;;3.23;3.03;;;12.90;67.50;;;;;;6233845;28;20238;-81
2023/08/08 02:01:30;;;;;;;3.33;3.13;;;12.90;67.50;;;;;;6228121;28;20242;-80
2023/08/08 02:04:33;;;;;;;3.13;3.03;;;12.80;67.40;;;;;;6228235;28;20241;-82
2023/08/08 02:07:37;;;;;;;3.40;3.20;;;12.80;67.20;;;;;;6227878;28;20249;-81
2023/08/08 02:10:41;;;;;;;3.93;3.00;;;12.90;67.20;;;;;;6227026;28;20315;-82
2023/08/08 02:13:44;;;;;;;4.63;3.27;;;12.90;67.00;;;;;;6235392;28;20242;-81
2023/08/08 02:16:48;;;;;;;3.50;3.20;;;12.90;66.90;;;;;;6221506;28;20245;-81
2023/08/08 02:19:51;;;;;;;3.07;2.87;;;12.90;66.80;;;;;;6226794;28;20253;-80
2023/08/08 02:22:54;;;;;;;3.33;3.03;;;12.90;66.60;;;;;;6235559;28;20234;-81
2023/08/08 02:25:59;;;;;;;3.43;3.33;;;12.90;67.00;;;;;;6235620;28;20719;-83
2023/08/08 02:29:02;;;;;;;3.97;3.63;;;12.90;67.00;;;;;;6218392;28;20250;-80
2023/08/08 02:32:07;;;;;;;6.17;3.17;;;12.90;67.00;;;;;;6222696;28;20243;-81
2023/08/08 02:35:11;;;;;;;4.77;3.30;;;12.90;67.00;;;;;;6232022;28;20787;-82
2023/08/08 02:38:14;;;;;;;3.27;3.03;;;12.90;67.10;;;;;;6231822;28;20238;-79
2023/08/08 02:41:18;;;;;;;3.53;3.33;;;12.90;67.40;;;;;;6224860;28;20234;-80
2023/08/08 02:44:22;;;;;;;3.90;3.23;;;12.80;67.70;;;;;;6229448;28;20626;-82
2023/08/08 02:47:25;;;;;;;3.50;3.30;;;12.90;67.70;;;;;;6236572;28;20238;-79
2023/08/08 02:50:29;;;;;;;3.37;3.07;;;12.80;68.00;;;;;;6224876;28;20693;-81
2023/08/08 02:53:32;;;;;;;3.67;3.37;;;12.70;68.30;;;;;;6235479;28;20836;-82
2023/08/08 02:56:36;;;;;;;3.93;3.60;;;12.70;68.60;;;;;;6236024;28;20242;-82
2023/08/08 02:59:39;;;;;;;3.60;3.50;;;12.70;68.90;;;;;;6208758;28;20890;-82
2023/08/08 03:02:43;;;;;;;3.50;3.30;;;12.70;69.00;;;;;;6239139;28;20243;-81
2023/08/08 03:05:46;;;;;;;4.03;3.67;;;12.60;69.20;;;;;;6243393;28;20239;-81
2023/08/08 03:08:49;;;;;;;3.77;3.60;;;12.60;69.50;;;;;;6240462;28;20254;-82
2023/08/08 03:11:54;;;;;;;3.87;3.50;;;12.50;69.70;;;;;;6241009;28;20235;-81
2023/08/08 03:14:58;;;;;;;5.07;3.40;;;12.50;69.70;;;;;;6227212;28;20607;-81
2023/08/08 03:18:03;;;;;;;4.07;3.53;;;12.50;69.70;;;;;;6228255;28;20258;-81
2023/08/08 03:21:06;;;;;;;4.30;3.90;;;12.50;69.90;;;;;;6226973;28;20234;-80
2023/08/08 03:24:10;;;;;;;3.30;3.10;;;12.50;69.90;;;;;;6239864;28;20321;-82
2023/08/08 03:27:14;;;;;;;4.43;3.87;;;12.50;70.10;;;;;;6236610;28;20647;-82
2023/08/08 03:30:18;;;;;;;3.60;3.50;;;12.50;70.30;;;;;;6238504;28;20234;-81
2023/08/08 03:33:21;;;;;;;4.37;4.07;;;12.50;70.30;;;;;;6238291;28;20238;-88
2023/08/08 03:36:25;;;;;;;4.10;3.80;;;12.50;70.40;;;;;;6237756;28;20308;-86
2023/08/08 03:39:28;;;;;;;4.67;3.63;;;12.60;70.50;;;;;;6243768;28;22081;-86
2023/08/08 03:42:33;;;;;;;4.90;4.60;;;12.60;70.60;;;;;;6234729;28;20235;-87
2023/08/08 03:45:38;;;;;;;4.43;3.70;;;12.60;70.80;;;;;;6238907;28;20266;-86
2023/08/08 03:48:41;;;;;;;4.37;3.97;;;12.60;70.80;;;;;;6226075;28;20250;-86
2023/08/08 03:51:48;;;;;;;3.73;3.43;;;12.50;70.90;;;;;;6239609;28;20807;-87
2023/08/08 03:54:52;;;;;;;4.50;3.87;;;12.60;71.00;;;;;;6245826;28;20239;-87
2023/08/08 03:57:57;;;;;;;4.40;4.13;;;12.60;71.00;;;;;;6245669;28;20365;-86
2023/08/08 04:01:00;;;;;;;4.33;4.00;;;12.70;70.80;;;;;;6234732;28;20243;-88
2023/08/08 04:04:05;;;;;;;4.17;3.87;;;12.70;70.80;;;;;;6232350;28;20250;-85
2023/08/08 04:07:08;;;;;;;3.60;3.30;;;12.80;70.90;;;;;;6233902;28;20357;-86
2023/08/08 04:10:13;;;;;;;4.93;3.97;;;12.80;70.90;;;;;;6235599;28;20223;-86
2023/08/08 04:13:17;;;;;;;6.00;4.10;;;12.80;71.10;;;;;;6241072;28;20766;-84
2023/08/08 04:16:21;;;;;;;4.43;3.90;;;12.80;71.00;;;;;;6232080;28;20709;-84
2023/08/08 04:19:31;;;;;;;4.10;3.90;;;12.80;71.20;;;;;;6237906;28;20242;-87
2023/08/08 04:22:35;;;;;;;3.97;3.60;;;12.90;71.10;;;;;;6212940;28;20231;-85
2023/08/08 04:25:43;;;;;;;4.67;4.07;;;12.90;71.20;;;;;;6226892;28;20230;-87
2023/08/08 04:28:49;;;;;;;5.37;3.40;;;12.90;71.10;;;;;;6234138;28;20285;-87
2023/08/08 04:31:53;;;;;;;4.10;3.80;;;13.00;71.00;;;;;;6246007;28;20231;-88
2023/08/08 04:34:56;;;;;;;3.70;3.43;;;13.00;71.10;;;;;;6238271;28;20235;-86
2023/08/08 04:38:00;;;;;;;5.43;3.93;;;12.90;71.10;;;;;;6234717;28;20273;-88
2023/08/08 04:41:06;;;;;;;3.90;3.57;;;12.90;71.20;;;;;;6227545;28;20239;-87
2023/08/08 04:44:11;;;;;;;4.23;3.93;;;12.90;71.20;;;;;;6235827;28;20292;-87
2023/08/08 04:47:15;;;;;;;4.37;3.80;;;13.00;71.40;;;;;;6232352;28;20242;-88
2023/08/08 04:50:19;;;;;;;3.70;3.60;;;13.00;71.20;;;;;;6232319;28;20230;-77
2023/08/08 04:53:22;;;;;;;3.57;3.43;;;13.10;71.10;;;;;;6232050;28;20308;-86
2023/08/08 04:56:25;;;;;;;3.97;3.70;;;13.20;70.90;;;;;;6228156;28;20273;-82
2023/08/08 04:59:33;;;;;;;5.83;3.80;;;13.20;70.70;;;;;;6226982;28;20243;-81
2023/08/08 05:02:39;;;;;;;4.97;4.13;;;13.20;70.80;;;;;;6237242;28;20794;-82
2023/08/08 05:05:44;;;;;;;5.77;3.83;;;13.30;70.70;;;;;;6232342;28;20258;-81
2023/08/08 05:08:48;;;;;;;3.90;3.60;;;13.30;70.50;;;;;;6240799;28;20249;-84
2023/08/08 05:11:51;;;;;;;4.07;3.60;;;13.40;70.50;;;;;;6231040;28;20259;-87
2023/08/08 05:14:56;;;;;;;5.03;3.47;;;13.50;70.30;;;;;;6237039;28;20313;-87
2023/08/08 05:17:59;;;;;;;5.13;3.60;;;13.50;70.20;;;;;;6227423;28;20674;-87
2023/08/08 05:21:05;;;;;;;4.20;3.90;;;13.50;70.40;;;;;;6238190;28;20231;-86
2023/08/08 05:24:08;;;;;;;3.77;3.50;;;13.40;70.30;;;;;;6234162;28;20762;-87
2023/08/08 05:27:12;;;;;;;3.90;3.60;;;13.40;70.50;;;;;;6233608;28;20354;-87
2023/08/08 05:30:17;;;;;;;4.47;4.17;;;13.30;70.70;;;;;;6237045;28;20234;-86
2023/08/08 05:33:22;;;;;;;3.80;3.50;;;13.30;70.70;;;;;;6237763;28;20234;-85
2023/08/08 05:36:25;;;;;;;3.73;3.43;;;13.40;70.70;;;;;;6221934;28;20239;-86
2023/08/08 05:39:28;;;;;;;3.80;3.50;;;13.60;70.40;;;;;;6221871;28;20246;-87
2023/08/08 05:42:32;;;;;;;3.77;3.57;;;13.70;70.10;;;;;;6236438;28;20615;-88
2023/08/08 05:45:37;;;;;;;3.60;3.30;;;14.00;69.70;;;;;;6233470;28;20241;-86
2023/08/08 05:48:42;;;;;;;3.83;3.40;;;14.30;68.70;;;;;;6235649;28;20246;-87
2023/08/08 05:51:46;;;;;;;4.93;3.60;;;14.30;69.00;;;;;;6232181;28;20246;-86
2023/08/08 05:54:49;;;;;;;3.83;3.60;;;14.40;68.70;;;;;;6222875;28;20245;-88
2023/08/08 05:57:54;;;;;;;3.57;3.30;;;14.50;68.50;;;;;;6231992;28;20279;-86
2023/08/08 06:01:00;;;;;;;3.57;3.17;;;14.50;68.30;;;;;;6236249;28;20277;-87
2023/08/08 06:04:04;;;;;;;2.93;2.93;;;14.50;68.30;;;;;;6236026;28;20234;-86
2023/08/08 06:07:07;;;;;;;4.10;3.70;;;14.40;68.70;;;;;;6245567;28;20226;-85
2023/08/08 06:10:12;;;;;;;4.10;3.40;;;14.50;69.00;;;;;;6243736;28;20360;-88
2023/08/08 06:13:18;;;;;;;4.20;3.37;;;14.70;68.70;;;;;;6243847;28;20453;-84
2023/08/08 06:16:24;;;;;;;3.40;3.23;;;14.80;67.90;;;;;;6238848;28;20250;-86
2023/08/08 06:19:28;;;;;;;3.77;3.03;;;14.80;68.10;;;;;;6198461;28;20641;-86
2023/08/08 06:22:38;;;;;;;4.27;3.70;;;14.80;68.20;;;;;;6220057;28;20732;-85
2023/08/08 06:25:42;;;;;;;5.10;3.50;;;14.80;68.00;;;;;;6230194;28;20231;-86
2023/08/08 06:28:46;;;;;;;3.90;3.60;;;14.70;68.30;;;;;;6237569;28;20253;-85
2023/08/08 06:31:51;;;;;;;4.20;3.33;;;14.70;68.50;;;;;;6228423;28;20253;-85
2023/08/08 06:34:55;;;;;;;3.73;3.37;;;14.80;68.20;;;;;;6235614;28;20328;-86
2023/08/08 06:37:59;;;;;;;3.50;3.20;;;15.00;68.10;;;;;;6236462;28;20241;-88
2023/08/08 06:41:03;;;;;;;3.63;3.50;;;15.30;67.50;;;;;;6225690;28;20893;-87
2023/08/08 06:44:09;;;;;;;4.07;3.33;;;15.20;67.40;;;;;;6227844;28;20234;-85
2023/08/08 06:47:14;;;;;;;4.07;3.67;;;15.20;67.80;;;;;;6235526;28;20269;-86
2023/08/08 06:50:20;;;;;;;6.10;3.90;;;15.20;67.80;;;;;;6240061;28;21068;-82
2023/08/08 06:53:26;;;;;;;3.93;3.67;;;15.10;67.60;;;;;;6236090;28;20301;-88
2023/08/08 06:56:29;;;;;;;3.73;3.13;;;15.00;68.00;;;;;;6246395;28;20226;-88
2023/08/08 06:59:32;;;;;;;3.60;3.30;;;15.00;68.00;;;;;;6236306;28;20863;-86
2023/08/08 07:02:37;;;;;;;3.80;3.50;;;15.00;68.10;;;;;;6241685;28;20235;-84
2023/08/08 07:05:40;;;;;;;3.57;3.30;;;15.20;67.70;;;;;;6227714;28;20239;-82
2023/08/08 07:08:44;;;;;;;3.63;3.40;;;15.10;67.50;;;;;;6231651;28;20234;-85
2023/08/08 07:11:56;;;;;;;4.20;3.80;;;15.10;67.80;;;;;;6222838;28;20242;-83
2023/08/08 07:14:59;;;;;;;3.63;3.33;;;15.20;67.90;;;;;;6228334;28;20330;-83
2023/08/08 07:18:04;;;;;;;3.90;3.70;;;15.20;68.10;;;;;;6236425;28;20732;-85
2023/08/08 07:21:08;;;;;;;3.70;3.60;;;15.30;67.50;;;;;;6229723;28;20696;-83
2023/08/08 07:24:12;;;;;;;3.80;3.50;;;15.40;67.10;;;;;;6238719;28;20234;-84
2023/08/08 07:27:15;;;;;;;4.03;3.57;;;15.60;66.80;;;;;;6241851;28;20320;-84
2023/08/08 07:30:19;;;;;;;4.63;3.27;;;15.80;66.00;;;;;;6219190;28;20226;-86
2023/08/08 07:33:23;;;;;;;3.50;3.30;;;15.80;66.30;;;;;;6233446;28;20230;-84
2023/08/08 07:36:27;;;;;;;4.03;3.73;;;15.90;65.60;;;;;;6215806;28;20238;-84
2023/08/08 07:39:35;;;;;;;5.63;3.70;;;15.80;65.50;;;;;;6230602;28;20235;-86
2023/08/08 07:42:39;;;;;;;4.20;3.27;;;15.70;66.10;;;;;;6228273;28;20234;-87
2023/08/08 07:45:43;;;;;;;4.10;3.80;;;15.80;66.60;;;;;;6231852;28;20250;-86
2023/08/08 07:48:48;;;;;;;4.50;3.10;;;15.90;65.90;;;;;;6220551;28;20242;-86
2023/08/08 07:51:52;;;;;;;3.50;3.30;;;16.10;65.80;;;;;;6238916;28;22208;-86
2023/08/08 07:54:55;;;;;;;3.20;3.10;;;16.20;65.50;;;;;;6245109;28;20235;-87
2023/08/08 07:57:58;;;;;;;3.23;3.10;;;16.20;65.50;;;;;;6235999;28;20280;-85
2023/08/08 08:01:02;;;;;;;3.50;3.30;;;16.10;65.00;;;;;;6243026;28;20766;-85
2023/08/08 08:04:07;;;;;;;3.53;3.33;;;16.00;65.60;;;;;;6218484;28;20235;-84
2023/08/08 08:07:10;;;;;;;4.70;3.60;;;16.00;65.70;;;;;;6239137;28;20313;-83
2023/08/08 08:10:14;;;;;;;3.80;3.20;;;16.00;66.20;;;;;;6241520;28;20231;-84
2023/08/08 08:13:17;;;;;;;3.57;3.37;;;16.10;65.70;;;;;;6210791;28;20518;-80
2023/08/08 08:16:20;;;;;;;3.27;3.00;;;16.20;65.70;;;;;;6237295;28;20246;-80
2023/08/08 08:19:25;;;;;;;3.73;3.20;;;16.40;65.00;;;;;;6237895;28;20235;-80
2023/08/08 08:22:28;;;;;;;3.57;3.27;;;16.50;64.70;;;;;;6226352;28;20612;-80
2023/08/08 08:25:32;;;;;;;4.40;2.77;;;16.80;64.70;;;;;;6232125;28;20234;-80
2023/08/08 08:28:35;;;;;;;3.87;3.10;;;17.00;64.30;;;;;;6234410;28;20253;-81
2023/08/08 08:31:38;;;;;;;3.00;2.83;;;17.20;64.10;;;;;;6238597;28;20843;-82
2023/08/08 08:34:44;;;;;;;3.97;3.40;;;17.30;62.70;;;;;;6234515;28;20285;-80
2023/08/08 08:37:47;;;;;;;3.33;3.00;;;17.60;62.20;;;;;;6237350;28;20716;-79
2023/08/08 08:40:51;;;;;;;3.97;3.60;;;17.60;62.50;;;;;;6236748;28;20269;-82
2023/08/08 08:43:55;;;;;;;2.90;2.80;;;17.50;61.10;;;;;;6229103;28;20350;-81
2023/08/08 08:47:00;;;;;;;3.40;3.00;;;17.40;61.70;;;;;;6237449;28;20333;-81
2023/08/08 08:50:05;;;;;;;3.30;3.20;;;17.00;61.40;;;;;;6235049;28;20747;-81
2023/08/08 08:53:10;;;;;;;3.37;3.17;;;16.80;62.20;;;;;;6237128;28;20234;-80
2023/08/08 08:56:14;;;;;;;3.10;3.00;;;16.80;62.80;;;;;;6237805;28;20309;-79
2023/08/08 08:59:18;;;;;;;3.13;3.03;;;16.80;63.20;;;;;;6230352;28;20318;-79
2023/08/08 09:02:22;;;;;;;3.20;3.00;;;17.00;63.00;;;;;;6230674;28;20243;-79
2023/08/08 09:05:27;;;;;;;3.20;3.00;;;17.20;62.60;;;;;;6236240;28;20284;-81
2023/08/08 09:08:30;;;;;;;4.00;2.90;;;17.30;62.50;;;;;;6233526;28;20325;-81
2023/08/08 09:11:33;;;;;;;3.13;2.93;;;17.40;62.20;;;;;;6231752;28;20230;-81
2023/08/08 09:14:41;;;;;;;3.90;3.17;;;17.50;62.00;;;;;;6237445;28;21312;-80
2023/08/08 09:17:45;;;;;;;2.77;2.73;;;17.80;62.10;;;;;;6233240;28;20723;-80
2023/08/08 09:20:53;;;;;;;3.13;2.90;;;17.60;61.40;;;;;;6229260;28;20245;-84
2023/08/08 09:23:56;;;;;;;3.53;2.90;;;17.80;61.00;;;;;;6233779;28;20231;-82
2023/08/08 09:26:59;;;;;;;5.20;3.23;;;17.80;61.20;;;;;;6235920;28;20293;-82
2023/08/08 09:30:03;;;;;;;2.97;2.73;;;17.80;61.20;;;;;;6233743;28;20239;-86
2023/08/08 09:33:07;;;;;;;3.33;3.13;;;18.00;60.70;;;;;;6238496;28;20246;-85
2023/08/08 09:36:16;;;;;;;4.67;3.20;;;18.10;61.50;;;;;;6240133;28;20795;-85
2023/08/08 09:39:20;;;;;;;3.40;3.10;;;18.70;59.60;;;;;;6226194;28;20270;-85
2023/08/08 09:42:24;;;;;;;3.10;2.90;;;18.80;59.30;;;;;;6245304;28;20315;-85
2023/08/08 09:45:27;;;;;;;2.40;2.40;;;18.60;58.40;;;;;;6264966;28;20246;-85
2023/08/08 09:48:32;;;;;;;3.40;3.20;;;18.70;59.20;;;;;;6266288;28;20234;-80
2023/08/08 09:51:37;;;;;;;3.20;3.00;;;19.00;57.90;;;;;;6263652;28;20647;-86
2023/08/08 09:54:43;;;;;;;6.53;2.73;;;18.90;58.00;;;;;;6260083;28;20276;-83
2023/08/08 09:57:48;;;;;;;3.00;2.80;;;19.10;56.90;;;;;;6263845;28;20250;-84
2023/08/08 10:00:51;;;;;;;5.40;3.10;;;18.80;57.90;;;;;;6260277;28;20310;-87
2023/08/08 10:03:56;;;;;;;3.13;3.00;;;18.50;58.50;;;;;;6257959;28;20231;-83
2023/08/08 10:07:01;;;;;;;4.63;3.27;;;18.40;59.00;;;;;;6266284;28;20238;-84
2023/08/08 10:10:05;;;;;;;3.90;3.50;;;18.00;61.80;;;;;;6264622;28;20318;-85
2023/08/08 10:13:09;;;;;;;12.83;8.00;;;16.90;65.70;;;;;;6267604;28;20222;-85
2023/08/08 10:16:12;;;;;;;3.73;3.43;;;16.50;67.10;;;;;;6241287;28;20228;-87
2023/08/08 10:19:23;;;;;;;3.87;3.47;;;16.40;67.80;;;;;;6232796;28;20245;-85
2023/08/08 10:22:28;;;;;;;3.80;3.50;;;16.50;66.80;;;;;;6255542;28;20227;-84
2023/08/08 10:25:32;;;;;;;3.33;3.17;;;16.50;67.00;;;;;;6259924;28;20215;-85
2023/08/08 10:28:36;;;;;;;3.77;3.50;;;16.40;66.80;;;;;;6258324;28;20239;-82
2023/08/08 10:31:39;;;;;;;3.97;3.67;;;16.50;66.40;;;;;;6264865;28;20270;-84
2023/08/08 10:34:43;;;;;;;3.50;3.40;;;16.60;66.20;;;;;;6253387;28;20254;-85
2023/08/08 10:37:55;;;;;;;3.80;3.70;;;16.90;65.80;;;;;;6256427;28;20620;-84
2023/08/08 10:40:59;;;;;;;3.70;3.50;;;17.20;64.30;;;;;;6264229;28;20253;-84
2023/08/08 10:44:03;;;;;;;3.10;3.00;;;17.50;64.50;;;;;;6266429;28;20312;-83
2023/08/08 10:47:06;;;;;;;3.67;3.37;;;17.80;61.30;;;;;;6267717;28;20245;-85
2023/08/08 10:50:14;;;;;;;3.87;3.53;;;18.00;61.10;;;;;;6269306;28;20303;-86
2023/08/08 10:53:19;;;;;;;3.60;3.40;;;17.90;61.40;;;;;;6260913;28;20257;-88
2023/08/08 10:56:24;;;;;;;4.83;3.57;;;17.60;61.00;;;;;;6235986;28;20242;-87
2023/08/08 10:59:38;;;;;;;4.73;3.80;;;17.00;63.90;;;;;;6242771;28;20238;-87
2023/08/08 11:02:42;;;;;;;3.50;3.20;;;16.50;67.30;;;;;;6239456;28;20768;-87
2023/08/08 11:05:55;;;;;;;3.30;3.20;;;16.50;66.80;;;;;;6240224;28;20257;-86
2023/08/08 11:09:02;;;;;;;3.27;3.00;;;16.50;64.60;;;;;;6239679;28;20234;-87
2023/08/08 11:12:07;;;;;;;3.27;3.07;;;16.50;64.80;;;;;;6234275;28;20238;-85
2023/08/08 11:15:11;;;;;;;5.83;3.27;;;16.70;64.70;;;;;;6238911;28;20238;-85
2023/08/08 11:18:14;;;;;;;3.20;3.10;;;16.90;63.90;;;;;;6240136;28;20262;-87
2023/08/08 11:21:20;;;;;;;3.50;3.30;;;17.20;64.20;;;;;;6240373;28;20306;-87
2023/08/08 11:24:25;;;;;;;3.77;3.53;;;17.50;62.60;;;;;;6241384;28;20234;-86
2023/08/08 11:27:28;;;;;;;3.67;3.43;;;18.00;62.20;;;;;;6243323;28;20743;-85
2023/08/08 11:30:38;;;;;;;4.07;3.80;;;18.00;60.90;;;;;;6248970;28;20296;-86
2023/08/08 11:33:41;;;;;;;3.00;2.90;;;17.70;63.50;;;;;;6244604;28;20243;-85
2023/08/08 11:36:45;;;;;;;2.40;2.40;;;17.00;64.70;;;;;;6241283;28;20709;-87
2023/08/08 11:39:50;;;;;;;2.50;2.30;;;16.70;66.20;;;;;;6244154;28;20257;-85
2023/08/08 11:42:57;;;;;;;2.73;2.60;;;16.40;64.90;;;;;;6239420;28;20780;-84
2023/08/08 11:46:03;;;;;;;2.67;2.57;;;16.00;64.60;;;;;;6245040;28;20231;-86
2023/08/08 11:49:07;;;;;;;3.10;3.00;;;15.80;65.40;;;;;;6244651;28;20246;-85
2023/08/08 11:52:10;;;;;;;2.97;2.77;;;15.80;67.00;;;;;;6239715;28;20243;-86
2023/08/08 11:55:15;;;;;;;2.70;2.60;;;15.80;65.40;;;;;;6241948;28;20254;-84
2023/08/08 11:58:19;;;;;;;3.20;2.93;;;16.30;65.80;;;;;;6244651;28;20246;-85
2023/08/08 12:01:27;;;;;;;3.07;2.97;;;16.70;66.00;;;;;;6238131;28;20303;-87
2023/08/08 12:04:30;;;;;;;3.07;2.97;;;16.80;64.90;;;;;;6242483;28;20242;-85
2023/08/08 12:07:34;;;;;;;3.17;3.10;;;16.80;64.50;;;;;;6243042;28;20239;-87
2023/08/08 12:10:39;;;;;;;3.87;3.40;;;16.90;65.00;;;;;;6236881;28;20227;-85
2023/08/08 12:13:44;;;;;;;3.30;3.13;;;17.20;64.70;;;;;;6235168;28;20235;-85
2023/08/08 12:16:48;;;;;;;3.57;3.47;;;17.50;64.10;;;;;;6233937;28;20249;-86
2023/08/08 12:19:51;;;;;;;3.30;3.10;;;17.80;62.80;;;;;;6238764;28;20247;-85
2023/08/08 12:22:55;;;;;;;3.63;3.37;;;18.00;62.50;;;;;;6235689;28;20353;-86
2023/08/08 12:26:00;;;;;;;3.70;3.50;;;18.20;61.30;;;;;;6238834;28;20226;-84
2023/08/08 12:29:03;;;;;;;3.63;3.43;;;18.40;60.40;;;;;;6238554;28;20781;-85
2023/08/08 12:32:08;;;;;;;10.27;6.50;;;18.60;60.10;;;;;;6234095;28;20265;-86
2023/08/08 12:35:11;;;;;;;4.13;3.77;;;18.80;59.70;;;;;;6225196;28;21073;-86
2023/08/08 12:38:18;;;;;;;3.90;3.70;;;19.00;58.80;;;;;;6228974;28;20740;-84
2023/08/08 12:41:30;;;;;;;3.67;3.40;;;18.80;59.00;;;;;;6238286;28;20868;-86
2023/08/08 12:44:33;;;;;;;3.33;3.23;;;18.50;59.10;;;;;;6229143;28;20226;-83
2023/08/08 12:47:40;;;;;;;3.17;3.07;;;18.10;60.80;;;;;;6235744;28;20231;-86
2023/08/08 12:50:43;;;;;;;3.20;3.00;;;18.10;61.20;;;;;;6230866;28;20727;-84
2023/08/08 12:53:47;;;;;;;3.00;2.90;;;18.50;60.90;;;;;;6231438;28;20270;-85
2023/08/08 12:56:52;;;;;;;3.63;3.53;;;18.60;61.40;;;;;;6198127;28;20235;-86
2023/08/08 12:59:55;;;;;;;3.57;3.27;;;18.80;60.20;;;;;;6233420;28;20242;-86
2023/08/08 13:02:58;;;;;;;3.50;3.30;;;18.60;60.10;;;;;;6234497;28;20246;-83
2023/08/08 13:06:11;;;;;;;3.63;2.87;;;18.50;60.50;;;;;;6232533;28;20235;-85
2023/08/08 13:09:15;;;;;;;3.23;2.90;;;18.20;60.70;;;;;;6209501;28;20313;-85
2023/08/08 13:12:23;;;;;;;4.17;3.03;;;18.30;61.00;;;;;;6238094;28;20235;-85
2023/08/08 13:15:28;;;;;;;3.47;3.33;;;18.40;61.40;;;;;;6233495;28;20257;-85
2023/08/08 13:18:34;;;;;;;3.77;3.47;;;18.70;61.10;;;;;;6230079;28;20340;-84
2023/08/08 13:21:37;;;;;;;3.53;3.23;;;18.90;60.00;;;;;;6233195;28;20242;-84
2023/08/08 13:24:40;;;;;;;3.60;3.30;;;18.90;60.20;;;;;;6235420;28;20242;-85
2023/08/08 13:27:45;;;;;;;3.63;3.17;;;19.00;59.60;;;;;;6215456;28;20720;-84
2023/08/08 13:30:48;;;;;;;3.43;3.20;;;19.20;58.70;;;;;;6225461;28;20242;-84
2023/08/08 13:33:51;;;;;;;2.73;2.60;;;19.40;58.20;;;;;;6230313;28;20266;-85
2023/08/08 13:36:55;;;;;;;2.80;2.80;;;19.40;57.90;;;;;;6226280;28;20241;-84
2023/08/08 13:40:03;;;;;;;3.43;3.13;;;19.30;57.10;;;;;;6234649;28;20231;-86
2023/08/08 13:43:08;;;;;;;3.47;3.00;;;19.00;56.40;;;;;;6234353;28;20234;-83
2023/08/08 13:46:11;;;;;;;3.27;3.07;;;18.70;59.60;;;;;;6231675;28;20854;-84
2023/08/08 13:49:15;;;;;;;2.93;2.83;;;17.90;63.50;;;;;;6229780;28;20237;-83
2023/08/08 13:52:18;;;;;;;2.40;2.30;;;17.20;66.20;;;;;;6236003;28;20235;-83
2023/08/08 13:55:22;;;;;;;1.90;1.90;;;16.60;66.30;;;;;;6231546;28;20632;-84
2023/08/08 13:58:27;;;;;;;2.00;2.00;;;16.20;66.50;;;;;;6234428;28;20712;-84
2023/08/08 14:01:30;;;;;;;2.30;2.20;;;16.00;68.50;;;;;;6229408;28;20275;-86
2023/08/08 14:04:33;;;;;;;2.20;2.10;;;16.00;69.10;;;;;;6230511;28;20238;-82
2023/08/08 14:07:37;;;;;;;2.60;2.40;;;16.30;69.10;;;;;;6235698;28;20230;-84
2023/08/08 14:10:40;;;;;;;2.50;2.50;;;16.40;68.90;;;;;;6238605;28;20242;-82
2023/08/08 14:13:44;;;;;;;2.97;2.60;;;16.70;67.10;;;;;;6236143;28;20257;-84
2023/08/08 14:16:50;;;;;;;2.80;2.60;;;16.70;66.40;;;;;;6221204;28;20309;-84
2023/08/08 14:19:55;;;;;;;2.70;2.50;;;16.80;65.80;;;;;;6228095;28;20249;-83
2023/08/08 14:22:59;;;;;;;2.50;2.40;;;16.90;65.60;;;;;;6234036;28;20684;-84
2023/08/08 14:26:02;;;;;;;2.43;2.33;;;17.00;64.80;;;;;;6239764;28;20620;-84
2023/08/08 14:29:07;;;;;;;3.13;2.93;;;17.00;64.00;;;;;;6234065;28;20234;-85
2023/08/08 14:32:12;;;;;;;2.73;2.53;;;17.10;62.20;;;;;;6237110;28;20242;-86
2023/08/08 14:35:15;;;;;;;2.67;2.53;;;17.00;62.60;;;;;;6235373;28;20238;-82
2023/08/08 14:38:19;;;;;;;2.93;2.87;;;17.20;62.40;;;;;;6225255;28;20231;-87
2023/08/08 14:41:25;;;;;;;2.97;2.90;;;17.50;62.40;;;;;;6232569;28;20234;-85
2023/08/08 14:44:30;;;;;;;3.57;3.27;;;17.50;62.10;;;;;;6229560;28;20895;-83
2023/08/08 14:47:33;;;;;;;8.53;2.80;;;17.80;62.60;;;;;;6234420;28;20243;-84
2023/08/08 14:50:40;;;;;;;3.17;3.07;;;18.00;62.20;;;;;;6236617;28;20241;-84
2023/08/08 14:53:44;;;;;;;2.90;2.80;;;18.10;60.70;;;;;;6234437;28;20234;-86
2023/08/08 14:56:47;;;;;;;3.23;2.93;;;18.10;61.20;;;;;;6237339;28;20238;-82
2023/08/08 14:59:56;;;;;;;3.37;2.93;;;18.20;61.10;;;;;;6239318;28;20242;-84
2023/08/08 15:02:59;;;;;;;3.57;3.30;;;18.50;60.30;;;;;;6220532;28;20246;-84
2023/08/08 15:06:02;;;;;;;3.13;3.00;;;18.60;59.60;;;;;;6237513;28;20241;-83
2023/08/08 15:09:06;;;;;;;3.10;3.00;;;18.70;59.70;;;;;;6238725;28;20249;-87
2023/08/08 15:12:10;;;;;;;2.97;2.80;;;18.60;60.00;;;;;;6227892;28;20370;-83
2023/08/08 15:15:16;;;;;;;2.93;2.83;;;18.60;60.30;;;;;;6194300;28;20299;-82
2023/08/08 15:18:20;;;;;;;3.27;3.17;;;18.60;59.50;;;;;;6241283;28;20266;-84
2023/08/08 15:21:23;;;;;;;3.10;2.87;;;18.60;59.00;;;;;;6233412;28;20242;-85
2023/08/08 15:24:26;;;;;;;3.07;2.87;;;18.70;58.90;;;;;;6236477;28;20241;-82
2023/08/08 15:27:31;;;;;;;2.67;2.57;;;18.70;59.10;;;;;;6243890;28;21029;-84
2023/08/08 15:30:39;;;;;;;2.23;2.17;;;18.60;58.80;;;;;;6247362;28;20234;-84
2023/08/08 15:33:42;;;;;;;2.17;2.17;;;18.40;58.50;;;;;;6231902;28;20534;-82
2023/08/08 15:36:46;;;;;;;2.60;2.50;;;18.20;60.70;;;;;;6244446;28;21025;-84
2023/08/08 15:39:49;;;;;;;2.37;2.30;;;17.90;61.60;;;;;;6240706;28;20294;-81
2023/08/08 15:42:53;;;;;;;2.77;2.20;;;17.40;63.30;;;;;;6242577;28;21235;-85
2023/08/08 15:45:58;;;;;;;5.53;2.20;;;16.40;68.00;;;;;;6245870;28;20249;-80
2023/08/08 15:49:06;;;;;;;2.50;2.40;;;15.60;70.30;;;;;;6251864;28;20230;-82
2023/08/08 15:52:09;;;;;;;2.40;2.30;;;15.20;72.40;;;;;;6279957;28;20226;-82
2023/08/08 15:55:12;;;;;;;2.70;2.50;;;15.00;72.70;;;;;;6277808;28;20456;-81
2023/08/08 15:58:16;;;;;;;2.60;2.50;;;14.90;74.10;;;;;;6281748;28;20229;-80
2023/08/08 16:01:20;;;;;;;2.17;2.07;;;15.00;74.40;;;;;;6294503;28;20218;-81